Accueil
METAR-TAF:

METAR-TAF

Aéroports :

Aéroport de Gênes-Christophe Colomb

Gênes, Italie

latitude: 44-25N, longitude: 008-51E, altitude: 2 m

Observation

Le bulletin a été fait il y a 16 minutes, à 18:50 UTC
Vent 2 kt de direction variable
Température 26°C
Humidité 70%
Pression 1017 hPa
Visibilité 10 km ou plus
pas de nuages en-dessous de 1500 mètres et pas de cumulonimbus.

METAR: LIMJ 201850Z VRB02KT CAVOK 26/20 Q1017

Heure: 21:06 (19:06 UTC)

Prévision

Le bulletin a été fait il y a 2 heures et 6 minutes, à 17:00 UTC
Prévision valable du 20 à 18 UTC au 21 à 18 UTC
Vent 5 kt de direction variable
Visibilité 10 km ou plus
Nuages fragmentés à une hauteur de 4000 ft

TAF: LIMJ 201700Z 2018/2118 VRB05KT 9999 BKN040

Observations et prévisions météorologiques de plus de 4000 aéroports (messages METAR et TAF).

Les stations disponibles sont représentées par des disques jaunes et rouges sur la carte.

Passer la souris dessus pour voir le nom de la station.

Cliquer dessus pour voir les observations et prévisions météorologiques.

Pour changer de carte: cliquez sur les boutons verts avec une croix noire pour zoomer, sur le bouton vert avec un tiret pour effectuer un zoom arrière, ou sur les flèches vertes pour les cartes adjacentes.


METAR-TAF: